sensor_id;sensor_type;location;lat;lon;timestamp;temperature;humidity
39677;DHT22;27789;50.840;4.386;2023-08-06T00:00:02;15.80;99.90
39677;DHT22;27789;50.840;4.386;2023-08-06T00:02:28;15.80;99.90
39677;DHT22;27789;50.840;4.386;2023-08-06T00:04:53;15.80;99.90
39677;DHT22;27789;50.840;4.386;2023-08-06T00:07:19;15.90;99.90
39677;DHT22;27789;50.840;4.386;2023-08-06T00:09:44;15.80;99.90
39677;DHT22;27789;50.840;4.386;2023-08-06T00:12:10;15.80;99.90
39677;DHT22;27789;50.840;4.386;2023-08-06T00:14:35;15.80;99.90
39677;DHT22;27789;50.840;4.386;2023-08-06T00:17:01;15.80;99.90
39677;DHT22;27789;50.840;4.386;2023-08-06T00:19:26;15.80;99.90
39677;DHT22;27789;50.840;4.386;2023-08-06T00:21:52;15.80;99.90
39677;DHT22;27789;50.840;4.386;2023-08-06T00:24:17;15.80;99.90
39677;DHT22;27789;50.840;4.386;2023-08-06T00:26:43;15.70;99.90
39677;DHT22;27789;50.840;4.386;2023-08-06T00:29:08;15.70;99.90
39677;DHT22;27789;50.840;4.386;2023-08-06T00:31:34;15.70;99.90
39677;DHT22;27789;50.840;4.386;2023-08-06T00:33:59;15.80;99.90
39677;DHT22;27789;50.840;4.386;2023-08-06T00:36:25;15.80;99.90
39677;DHT22;27789;50.840;4.386;2023-08-06T00:38:50;15.80;99.90
39677;DHT22;27789;50.840;4.386;2023-08-06T00:41:15;15.70;99.90
39677;DHT22;27789;50.840;4.386;2023-08-06T00:43:41;15.80;99.90
39677;DHT22;27789;50.840;4.386;2023-08-06T00:46:06;15.70;99.90
39677;DHT22;27789;50.840;4.386;2023-08-06T00:48:32;15.80;99.90
39677;DHT22;27789;50.840;4.386;2023-08-06T00:50:58;15.80;99.90
39677;DHT22;27789;50.840;4.386;2023-08-06T00:53:23;15.90;99.90
39677;DHT22;27789;50.840;4.386;2023-08-06T00:55:49;15.90;99.90
39677;DHT22;27789;50.840;4.386;2023-08-06T00:58:15;15.90;99.90
39677;DHT22;27789;50.840;4.386;2023-08-06T01:00:41;16.00;99.90
39677;DHT22;27789;50.840;4.386;2023-08-06T01:03:06;16.00;99.90
39677;DHT22;27789;50.840;4.386;2023-08-06T01:05:32;15.90;99.90
39677;DHT22;27789;50.840;4.386;2023-08-06T01:10:49;16.00;99.90
39677;DHT22;27789;50.840;4.386;2023-08-06T01:13:18;16.00;99.90
39677;DHT22;27789;50.840;4.386;2023-08-06T01:15:49;15.90;99.90
39677;DHT22;27789;50.840;4.386;2023-08-06T01:18:15;15.90;99.90
39677;DHT22;27789;50.840;4.386;2023-08-06T01:20:40;15.90;99.90
39677;DHT22;27789;50.840;4.386;2023-08-06T01:23:06;15.90;99.90
39677;DHT22;27789;50.840;4.386;2023-08-06T01:25:46;15.90;99.90
39677;DHT22;27789;50.840;4.386;2023-08-06T01:28:16;15.90;99.90
39677;DHT22;27789;50.840;4.386;2023-08-06T01:30:44;15.90;99.90
39677;DHT22;27789;50.840;4.386;2023-08-06T01:33:14;15.90;99.90
39677;DHT22;27789;50.840;4.386;2023-08-06T01:35:40;16.00;99.90
39677;DHT22;27789;50.840;4.386;2023-08-06T01:38:05;16.00;99.90
39677;DHT22;27789;50.840;4.386;2023-08-06T01:40:31;16.00;99.90
39677;DHT22;27789;50.840;4.386;2023-08-06T01:42:57;16.00;99.90
39677;DHT22;27789;50.840;4.386;2023-08-06T01:45:23;16.00;99.90
39677;DHT22;27789;50.840;4.386;2023-08-06T01:47:48;16.00;99.90
39677;DHT22;27789;50.840;4.386;2023-08-06T01:50:14;16.00;99.90
39677;DHT22;27789;50.840;4.386;2023-08-06T01:52:39;16.00;99.90
39677;DHT22;27789;50.840;4.386;2023-08-06T01:55:05;16.00;99.90
39677;DHT22;27789;50.840;4.386;2023-08-06T01:57:30;16.00;99.90
39677;DHT22;27789;50.840;4.386;2023-08-06T01:59:56;16.00;99.90
39677;DHT22;27789;50.840;4.386;2023-08-06T02:02:22;16.00;99.90
39677;DHT22;27789;50.840;4.386;2023-08-06T02:04:47;16.00;99.90
39677;DHT22;27789;50.840;4.386;2023-08-06T02:07:13;15.90;99.90
39677;DHT22;27789;50.840;4.386;2023-08-06T02:09:38;15.90;99.90
39677;DHT22;27789;50.840;4.386;2023-08-06T02:12:04;15.90;99.90
39677;DHT22;27789;50.840;4.386;2023-08-06T02:14:29;15.80;99.90
39677;DHT22;27789;50.840;4.386;2023-08-06T02:16:55;15.90;99.90
39677;DHT22;27789;50.840;4.386;2023-08-06T02:19:20;15.80;99.90
39677;DHT22;27789;50.840;4.386;2023-08-06T02:21:46;15.80;99.90
39677;DHT22;27789;50.840;4.386;2023-08-06T02:24:11;15.70;99.90
39677;DHT22;27789;50.840;4.386;2023-08-06T02:26:37;15.70;99.90
39677;DHT22;27789;50.840;4.386;2023-08-06T02:29:02;15.80;99.90
39677;DHT22;27789;50.840;4.386;2023-08-06T02:31:28;15.80;99.90
39677;DHT22;27789;50.840;4.386;2023-08-06T02:33:53;15.80;99.90
39677;DHT22;27789;50.840;4.386;2023-08-06T02:36:19;15.90;99.90
39677;DHT22;27789;50.840;4.386;2023-08-06T02:38:44;15.90;99.90
39677;DHT22;27789;50.840;4.386;2023-08-06T02:41:10;15.90;99.90
39677;DHT22;27789;50.840;4.386;2023-08-06T02:43:35;15.90;99.90
39677;DHT22;27789;50.840;4.386;2023-08-06T02:46:01;15.90;99.90
39677;DHT22;27789;50.840;4.386;2023-08-06T02:48:27;15.90;99.90
39677;DHT22;27789;50.840;4.386;2023-08-06T02:50:52;15.90;99.90
39677;DHT22;27789;50.840;4.386;2023-08-06T02:53:18;15.90;99.90
39677;DHT22;27789;50.840;4.386;2023-08-06T02:55:47;15.90;99.90
39677;DHT22;27789;50.840;4.386;2023-08-06T02:58:15;15.90;99.90
39677;DHT22;27789;50.840;4.386;2023-08-06T03:00:41;15.90;99.90
39677;DHT22;27789;50.840;4.386;2023-08-06T03:03:08;15.80;99.90
39677;DHT22;27789;50.840;4.386;2023-08-06T03:05:33;15.90;99.90
39677;DHT22;27789;50.840;4.386;2023-08-06T03:07:59;15.90;99.90
39677;DHT22;27789;50.840;4.386;2023-08-06T03:10:24;15.90;99.90
39677;DHT22;27789;50.840;4.386;2023-08-06T03:12:50;15.90;99.90
39677;DHT22;27789;50.840;4.386;2023-08-06T03:15:15;15.90;99.90
39677;DHT22;27789;50.840;4.386;2023-08-06T03:17:41;15.90;99.90
39677;DHT22;27789;50.840;4.386;2023-08-06T03:20:06;15.80;99.90
39677;DHT22;27789;50.840;4.386;2023-08-06T03:22:32;15.90;99.90
39677;DHT22;27789;50.840;4.386;2023-08-06T03:24:57;15.90;99.90
39677;DHT22;27789;50.840;4.386;2023-08-06T03:27:23;15.80;99.90
39677;DHT22;27789;50.840;4.386;2023-08-06T03:29:49;15.90;99.90
39677;DHT22;27789;50.840;4.386;2023-08-06T03:32:15;15.90;99.90
39677;DHT22;27789;50.840;4.386;2023-08-06T03:34:41;15.90;99.90
39677;DHT22;27789;50.840;4.386;2023-08-06T03:37:06;15.80;99.90
39677;DHT22;27789;50.840;4.386;2023-08-06T03:39:31;15.90;99.90
39677;DHT22;27789;50.840;4.386;2023-08-06T03:41:57;15.90;99.90
39677;DHT22;27789;50.840;4.386;2023-08-06T03:44:22;15.90;99.90
39677;DHT22;27789;50.840;4.386;2023-08-06T03:46:48;15.90;99.90
39677;DHT22;27789;50.840;4.386;2023-08-06T03:49:13;16.00;99.90
39677;DHT22;27789;50.840;4.386;2023-08-06T03:51:39;15.90;99.90
39677;DHT22;27789;50.840;4.386;2023-08-06T03:54:04;16.00;99.90
39677;DHT22;27789;50.840;4.386;2023-08-06T03:56:30;16.00;99.90
39677;DHT22;27789;50.840;4.386;2023-08-06T03:58:55;16.00;99.90
39677;DHT22;27789;50.840;4.386;2023-08-06T04:01:21;16.00;99.90
39677;DHT22;27789;50.840;4.386;2023-08-06T04:03:46;15.90;99.90
39677;DHT22;27789;50.840;4.386;2023-08-06T04:06:12;15.80;99.90
39677;DHT22;27789;50.840;4.386;2023-08-06T04:08:37;15.80;99.90
39677;DHT22;27789;50.840;4.386;2023-08-06T04:11:03;15.70;99.90
39677;DHT22;27789;50.840;4.386;2023-08-06T04:13:29;15.70;99.90
39677;DHT22;27789;50.840;4.386;2023-08-06T04:15:54;15.60;99.90
39677;DHT22;27789;50.840;4.386;2023-08-06T04:18:20;15.50;99.90
39677;DHT22;27789;50.840;4.386;2023-08-06T04:20:46;15.50;99.90
39677;DHT22;27789;50.840;4.386;2023-08-06T04:23:12;15.40;99.90
39677;DHT22;27789;50.840;4.386;2023-08-06T04:25:38;15.40;99.90
39677;DHT22;27789;50.840;4.386;2023-08-06T04:28:03;15.40;99.90
39677;DHT22;27789;50.840;4.386;2023-08-06T04:30:29;15.30;99.90
39677;DHT22;27789;50.840;4.386;2023-08-06T04:32:56;15.30;99.90
39677;DHT22;27789;50.840;4.386;2023-08-06T04:35:21;15.30;99.90
39677;DHT22;27789;50.840;4.386;2023-08-06T04:37:47;15.30;99.90
39677;DHT22;27789;50.840;4.386;2023-08-06T04:40:12;15.30;99.90
39677;DHT22;27789;50.840;4.386;2023-08-06T04:42:38;15.30;99.90
39677;DHT22;27789;50.840;4.386;2023-08-06T04:45:04;15.30;99.90
39677;DHT22;27789;50.840;4.386;2023-08-06T04:47:29;15.30;99.90
39677;DHT22;27789;50.840;4.386;2023-08-06T04:49:55;15.30;99.90
39677;DHT22;27789;50.840;4.386;2023-08-06T04:52:20;15.20;99.90
39677;DHT22;27789;50.840;4.386;2023-08-06T04:54:46;15.20;99.90
39677;DHT22;27789;50.840;4.386;2023-08-06T04:57:11;15.20;99.90
39677;DHT22;27789;50.840;4.386;2023-08-06T04:59:37;15.20;99.90
39677;DHT22;27789;50.840;4.386;2023-08-06T05:02:02;15.10;99.90
39677;DHT22;27789;50.840;4.386;2023-08-06T05:04:28;15.10;99.90
39677;DHT22;27789;50.840;4.386;2023-08-06T05:06:53;15.10;99.90
39677;DHT22;27789;50.840;4.386;2023-08-06T05:09:19;15.10;99.90
39677;DHT22;27789;50.840;4.386;2023-08-06T05:11:46;15.10;99.90
39677;DHT22;27789;50.840;4.386;2023-08-06T05:14:11;15.10;99.90
39677;DHT22;27789;50.840;4.386;2023-08-06T05:16:37;15.10;99.90
39677;DHT22;27789;50.840;4.386;2023-08-06T05:19:02;15.10;99.90
39677;DHT22;27789;50.840;4.386;2023-08-06T05:21:28;15.10;99.90
39677;DHT22;27789;50.840;4.386;2023-08-06T05:23:54;15.00;99.90
39677;DHT22;27789;50.840;4.386;2023-08-06T05:26:19;15.10;99.90
39677;DHT22;27789;50.840;4.386;2023-08-06T05:28:45;15.10;99.90
39677;DHT22;27789;50.840;4.386;2023-08-06T05:31:11;15.00;99.90
39677;DHT22;27789;50.840;4.386;2023-08-06T05:33:36;15.10;99.90
39677;DHT22;27789;50.840;4.386;2023-08-06T05:36:02;15.10;99.90
39677;DHT22;27789;50.840;4.386;2023-08-06T05:38:29;15.10;99.90
39677;DHT22;27789;50.840;4.386;2023-08-06T05:40:54;15.10;99.90
39677;DHT22;27789;50.840;4.386;2023-08-06T05:43:20;15.10;99.90
39677;DHT22;27789;50.840;4.386;2023-08-06T05:45:46;15.10;99.90
39677;DHT22;27789;50.840;4.386;2023-08-06T05:48:14;15.10;99.90
39677;DHT22;27789;50.840;4.386;2023-08-06T05:50:39;15.10;99.90
39677;DHT22;27789;50.840;4.386;2023-08-06T05:53:05;15.20;99.90
39677;DHT22;27789;50.840;4.386;2023-08-06T05:55:30;15.20;99.90
39677;DHT22;27789;50.840;4.386;2023-08-06T05:57:57;15.20;99.90
39677;DHT22;27789;50.840;4.386;2023-08-06T06:00:23;15.10;99.90
39677;DHT22;27789;50.840;4.386;2023-08-06T06:02:48;15.10;99.90
39677;DHT22;27789;50.840;4.386;2023-08-06T06:05:14;15.10;99.90
39677;DHT22;27789;50.840;4.386;2023-08-06T06:07:39;15.10;99.90
39677;DHT22;27789;50.840;4.386;2023-08-06T06:10:05;15.20;99.90
39677;DHT22;27789;50.840;4.386;2023-08-06T06:12:30;15.20;99.90
39677;DHT22;27789;50.840;4.386;2023-08-06T06:14:56;15.30;99.90
39677;DHT22;27789;50.840;4.386;2023-08-06T06:17:21;15.30;99.90
39677;DHT22;27789;50.840;4.386;2023-08-06T06:19:47;15.30;99.90
39677;DHT22;27789;50.840;4.386;2023-08-06T06:22:13;15.30;99.90
39677;DHT22;27789;50.840;4.386;2023-08-06T06:24:39;15.30;99.90
39677;DHT22;27789;50.840;4.386;2023-08-06T06:27:04;15.40;99.90
39677;DHT22;27789;50.840;4.386;2023-08-06T06:29:30;15.30;99.90
39677;DHT22;27789;50.840;4.386;2023-08-06T06:31:55;15.40;99.90
39677;DHT22;27789;50.840;4.386;2023-08-06T06:34:21;15.40;99.90
39677;DHT22;27789;50.840;4.386;2023-08-06T06:36:47;15.50;99.90
39677;DHT22;27789;50.840;4.386;2023-08-06T06:39:12;15.40;99.90
39677;DHT22;27789;50.840;4.386;2023-08-06T06:41:38;15.50;99.90
39677;DHT22;27789;50.840;4.386;2023-08-06T06:44:04;15.50;99.90
39677;DHT22;27789;50.840;4.386;2023-08-06T06:46:29;15.50;99.90
39677;DHT22;27789;50.840;4.386;2023-08-06T06:48:55;15.50;99.90
39677;DHT22;27789;50.840;4.386;2023-08-06T06:51:20;15.50;99.90
39677;DHT22;27789;50.840;4.386;2023-08-06T06:53:46;15.60;99.90
39677;DHT22;27789;50.840;4.386;2023-08-06T06:56:11;15.60;99.90
39677;DHT22;27789;50.840;4.386;2023-08-06T06:58:36;15.60;99.90
39677;DHT22;27789;50.840;4.386;2023-08-06T07:01:04;15.60;99.90
39677;DHT22;27789;50.840;4.386;2023-08-06T07:03:29;15.60;99.90
39677;DHT22;27789;50.840;4.386;2023-08-06T07:05:58;15.60;99.90
39677;DHT22;27789;50.840;4.386;2023-08-06T07:08:26;15.50;99.90
39677;DHT22;27789;50.840;4.386;2023-08-06T07:11:01;15.40;99.90
39677;DHT22;27789;50.840;4.386;2023-08-06T07:13:27;15.40;99.90
39677;DHT22;27789;50.840;4.386;2023-08-06T07:15:53;15.40;99.90
39677;DHT22;27789;50.840;4.386;2023-08-06T07:18:19;15.40;99.90
39677;DHT22;27789;50.840;4.386;2023-08-06T07:20:48;15.30;99.90
39677;DHT22;27789;50.840;4.386;2023-08-06T07:23:13;15.40;99.90
39677;DHT22;27789;50.840;4.386;2023-08-06T07:25:39;15.50;99.90
39677;DHT22;27789;50.840;4.386;2023-08-06T07:28:04;15.50;99.90
39677;DHT22;27789;50.840;4.386;2023-08-06T07:30:30;15.50;99.90
39677;DHT22;27789;50.840;4.386;2023-08-06T07:32:56;15.50;99.90
39677;DHT22;27789;50.840;4.386;2023-08-06T07:35:21;15.50;99.90
39677;DHT22;27789;50.840;4.386;2023-08-06T07:37:47;15.50;99.90
39677;DHT22;27789;50.840;4.386;2023-08-06T07:40:12;15.60;99.90
39677;DHT22;27789;50.840;4.386;2023-08-06T07:42:38;15.60;99.90
39677;DHT22;27789;50.840;4.386;2023-08-06T07:45:03;15.60;99.90
39677;DHT22;27789;50.840;4.386;2023-08-06T07:47:29;15.70;99.90
39677;DHT22;27789;50.840;4.386;2023-08-06T07:49:54;15.70;99.90
39677;DHT22;27789;50.840;4.386;2023-08-06T07:52:20;15.80;99.90
39677;DHT22;27789;50.840;4.386;2023-08-06T07:54:45;15.90;99.90
39677;DHT22;27789;50.840;4.386;2023-08-06T07:57:11;15.90;99.90
39677;DHT22;27789;50.840;4.386;2023-08-06T07:59:36;15.90;99.90
39677;DHT22;27789;50.840;4.386;2023-08-06T08:02:02;16.00;99.90
39677;DHT22;27789;50.840;4.386;2023-08-06T08:04:28;16.10;99.90
39677;DHT22;27789;50.840;4.386;2023-08-06T08:06:53;16.20;99.90
39677;DHT22;27789;50.840;4.386;2023-08-06T08:09:18;16.20;99.90
39677;DHT22;27789;50.840;4.386;2023-08-06T08:11:45;16.30;99.90
39677;DHT22;27789;50.840;4.386;2023-08-06T08:14:11;16.30;99.90
39677;DHT22;27789;50.840;4.386;2023-08-06T08:16:36;16.30;99.90
39677;DHT22;27789;50.840;4.386;2023-08-06T08:19:02;16.40;99.90
39677;DHT22;27789;50.840;4.386;2023-08-06T08:21:29;16.40;99.90
39677;DHT22;27789;50.840;4.386;2023-08-06T08:23:54;16.30;99.90
39677;DHT22;27789;50.840;4.386;2023-08-06T08:26:20;16.30;99.90
39677;DHT22;27789;50.840;4.386;2023-08-06T08:28:45;16.30;99.90
39677;DHT22;27789;50.840;4.386;2023-08-06T08:31:11;16.20;99.90
39677;DHT22;27789;50.840;4.386;2023-08-06T08:33:37;16.10;99.90
39677;DHT22;27789;50.840;4.386;2023-08-06T08:36:02;16.00;99.90
39677;DHT22;27789;50.840;4.386;2023-08-06T08:38:28;16.00;99.90
39677;DHT22;27789;50.840;4.386;2023-08-06T08:40:54;16.00;99.90
39677;DHT22;27789;50.840;4.386;2023-08-06T08:43:23;16.00;99.90
39677;DHT22;27789;50.840;4.386;2023-08-06T08:45:52;16.00;99.90
39677;DHT22;27789;50.840;4.386;2023-08-06T08:48:20;16.00;99.90
39677;DHT22;27789;50.840;4.386;2023-08-06T08:50:46;16.00;99.90
39677;DHT22;27789;50.840;4.386;2023-08-06T08:53:15;16.10;99.90
39677;DHT22;27789;50.840;4.386;2023-08-06T08:55:41;16.10;99.90
39677;DHT22;27789;50.840;4.386;2023-08-06T08:58:07;16.00;99.90
39677;DHT22;27789;50.840;4.386;2023-08-06T09:00:33;16.10;99.90
39677;DHT22;27789;50.840;4.386;2023-08-06T09:02:59;16.10;99.90
39677;DHT22;27789;50.840;4.386;2023-08-06T09:05:26;16.00;99.90
39677;DHT22;27789;50.840;4.386;2023-08-06T09:07:53;16.10;99.90
39677;DHT22;27789;50.840;4.386;2023-08-06T09:10:19;16.10;99.90
39677;DHT22;27789;50.840;4.386;2023-08-06T09:12:48;16.20;99.90
39677;DHT22;27789;50.840;4.386;2023-08-06T09:15:16;16.20;99.90
39677;DHT22;27789;50.840;4.386;2023-08-06T09:17:41;16.20;99.90
39677;DHT22;27789;50.840;4.386;2023-08-06T09:20:13;16.20;99.90
39677;DHT22;27789;50.840;4.386;2023-08-06T09:22:39;16.20;99.90
39677;DHT22;27789;50.840;4.386;2023-08-06T09:25:06;16.10;99.90
39677;DHT22;27789;50.840;4.386;2023-08-06T09:27:38;16.00;99.90
39677;DHT22;27789;50.840;4.386;2023-08-06T09:30:03;16.00;99.90
39677;DHT22;27789;50.840;4.386;2023-08-06T09:32:45;15.80;99.90
39677;DHT22;27789;50.840;4.386;2023-08-06T09:35:15;15.70;99.90
39677;DHT22;27789;50.840;4.386;2023-08-06T09:37:40;15.70;99.90
39677;DHT22;27789;50.840;4.386;2023-08-06T09:40:22;15.60;99.90
39677;DHT22;27789;50.840;4.386;2023-08-06T09:42:49;15.50;99.90
39677;DHT22;27789;50.840;4.386;2023-08-06T09:45:16;15.50;99.90
39677;DHT22;27789;50.840;4.386;2023-08-06T09:47:41;15.50;99.90
39677;DHT22;27789;50.840;4.386;2023-08-06T09:50:14;15.40;99.90
39677;DHT22;27789;50.840;4.386;2023-08-06T09:52:40;15.50;99.90
39677;DHT22;27789;50.840;4.386;2023-08-06T09:55:06;15.40;99.90
39677;DHT22;27789;50.840;4.386;2023-08-06T09:57:32;15.50;99.90
39677;DHT22;27789;50.840;4.386;2023-08-06T09:59:57;15.50;99.90
39677;DHT22;27789;50.840;4.386;2023-08-06T10:02:23;15.60;99.90
39677;DHT22;27789;50.840;4.386;2023-08-06T10:04:50;15.60;99.90
39677;DHT22;27789;50.840;4.386;2023-08-06T10:07:15;15.60;99.90
39677;DHT22;27789;50.840;4.386;2023-08-06T10:09:43;15.60;99.90
39677;DHT22;27789;50.840;4.386;2023-08-06T10:12:09;15.60;99.90
39677;DHT22;27789;50.840;4.386;2023-08-06T10:14:35;15.60;99.90
39677;DHT22;27789;50.840;4.386;2023-08-06T10:17:02;15.70;99.90
39677;DHT22;27789;50.840;4.386;2023-08-06T10:19:28;15.70;99.90
39677;DHT22;27789;50.840;4.386;2023-08-06T10:27:12;15.80;99.90
39677;DHT22;27789;50.840;4.386;2023-08-06T10:29:41;15.80;99.90
39677;DHT22;27789;50.840;4.386;2023-08-06T10:32:06;15.70;99.90
39677;DHT22;27789;50.840;4.386;2023-08-06T10:37:16;15.80;99.90
39677;DHT22;27789;50.840;4.386;2023-08-06T10:39:48;15.80;99.90
39677;DHT22;27789;50.840;4.386;2023-08-06T10:42:27;15.70;99.90
39677;DHT22;27789;50.840;4.386;2023-08-06T10:45:11;15.60;99.90
39677;DHT22;27789;50.840;4.386;2023-08-06T10:47:38;15.60;99.90
39677;DHT22;27789;50.840;4.386;2023-08-06T10:50:07;15.50;99.90
39677;DHT22;27789;50.840;4.386;2023-08-06T10:52:33;15.50;99.90
39677;DHT22;27789;50.840;4.386;2023-08-06T10:54:59;15.50;99.90
39677;DHT22;27789;50.840;4.386;2023-08-06T10:57:25;15.60;99.90
39677;DHT22;27789;50.840;4.386;2023-08-06T10:59:50;15.60;99.90
39677;DHT22;27789;50.840;4.386;2023-08-06T11:02:16;15.60;99.90
39677;DHT22;27789;50.840;4.386;2023-08-06T11:04:41;15.70;99.90
39677;DHT22;27789;50.840;4.386;2023-08-06T11:07:07;15.80;99.90
39677;DHT22;27789;50.840;4.386;2023-08-06T11:09:32;15.80;99.90
39677;DHT22;27789;50.840;4.386;2023-08-06T11:11:58;15.90;99.90
39677;DHT22;27789;50.840;4.386;2023-08-06T11:14:23;15.90;99.90
39677;DHT22;27789;50.840;4.386;2023-08-06T11:16:49;16.00;99.90
39677;DHT22;27789;50.840;4.386;2023-08-06T11:19:15;15.90;99.90
39677;DHT22;27789;50.840;4.386;2023-08-06T11:21:42;16.00;99.90
39677;DHT22;27789;50.840;4.386;2023-08-06T11:24:12;16.00;99.90
39677;DHT22;27789;50.840;4.386;2023-08-06T11:26:37;15.90;99.90
39677;DHT22;27789;50.840;4.386;2023-08-06T11:29:05;16.00;99.90
39677;DHT22;27789;50.840;4.386;2023-08-06T11:31:31;16.10;99.90
39677;DHT22;27789;50.840;4.386;2023-08-06T11:33:56;15.90;99.90
39677;DHT22;27789;50.840;4.386;2023-08-06T11:36:28;15.80;99.90
39677;DHT22;27789;50.840;4.386;2023-08-06T11:38:54;15.80;99.90
39677;DHT22;27789;50.840;4.386;2023-08-06T11:41:20;15.70;99.90
39677;DHT22;27789;50.840;4.386;2023-08-06T11:43:46;15.80;99.90
39677;DHT22;27789;50.840;4.386;2023-08-06T11:46:11;15.80;99.90
39677;DHT22;27789;50.840;4.386;2023-08-06T11:48:52;15.70;99.90
39677;DHT22;27789;50.840;4.386;2023-08-06T11:51:18;15.50;99.90
39677;DHT22;27789;50.840;4.386;2023-08-06T11:53:49;15.50;99.90
39677;DHT22;27789;50.840;4.386;2023-08-06T11:56:15;15.50;99.90
39677;DHT22;27789;50.840;4.386;2023-08-06T11:58:41;15.90;99.90
39677;DHT22;27789;50.840;4.386;2023-08-06T12:01:06;15.60;99.90
39677;DHT22;27789;50.840;4.386;2023-08-06T12:03:32;15.70;99.90
39677;DHT22;27789;50.840;4.386;2023-08-06T12:05:57;15.70;99.90
39677;DHT22;27789;50.840;4.386;2023-08-06T12:08:26;15.60;99.90
39677;DHT22;27789;50.840;4.386;2023-08-06T12:10:52;15.60;99.90
39677;DHT22;27789;50.840;4.386;2023-08-06T12:13:19;15.70;99.90
39677;DHT22;27789;50.840;4.386;2023-08-06T12:15:44;15.80;99.90
39677;DHT22;27789;50.840;4.386;2023-08-06T12:18:13;15.80;99.90
39677;DHT22;27789;50.840;4.386;2023-08-06T12:20:38;15.90;99.90
39677;DHT22;27789;50.840;4.386;2023-08-06T12:23:04;16.10;99.90
39677;DHT22;27789;50.840;4.386;2023-08-06T12:25:29;16.10;99.90
39677;DHT22;27789;50.840;4.386;2023-08-06T12:27:55;16.20;99.90
39677;DHT22;27789;50.840;4.386;2023-08-06T12:30:20;16.40;99.90
39677;DHT22;27789;50.840;4.386;2023-08-06T12:32:46;16.40;99.90
39677;DHT22;27789;50.840;4.386;2023-08-06T12:35:11;16.40;99.90
39677;DHT22;27789;50.840;4.386;2023-08-06T12:37:37;16.50;99.90
39677;DHT22;27789;50.840;4.386;2023-08-06T12:40:05;16.60;99.90
39677;DHT22;27789;50.840;4.386;2023-08-06T12:42:31;16.60;99.90
39677;DHT22;27789;50.840;4.386;2023-08-06T12:44:56;16.50;99.90
39677;DHT22;27789;50.840;4.386;2023-08-06T12:47:22;16.40;99.90
39677;DHT22;27789;50.840;4.386;2023-08-06T12:49:47;16.40;99.90
39677;DHT22;27789;50.840;4.386;2023-08-06T12:52:14;16.40;99.90
39677;DHT22;27789;50.840;4.386;2023-08-06T12:54:40;16.50;99.90
39677;DHT22;27789;50.840;4.386;2023-08-06T12:57:06;16.50;99.90
39677;DHT22;27789;50.840;4.386;2023-08-06T12:59:32;16.60;99.90
39677;DHT22;27789;50.840;4.386;2023-08-06T13:02:01;16.60;99.90
39677;DHT22;27789;50.840;4.386;2023-08-06T13:04:27;16.80;99.90
39677;DHT22;27789;50.840;4.386;2023-08-06T13:06:53;16.80;99.90
39677;DHT22;27789;50.840;4.386;2023-08-06T13:09:18;16.70;99.90
39677;DHT22;27789;50.840;4.386;2023-08-06T13:11:44;16.70;99.90
39677;DHT22;27789;50.840;4.386;2023-08-06T13:14:12;16.70;99.90
39677;DHT22;27789;50.840;4.386;2023-08-06T13:16:40;16.70;99.90
39677;DHT22;27789;50.840;4.386;2023-08-06T13:19:06;16.60;99.90
39677;DHT22;27789;50.840;4.386;2023-08-06T13:21:32;16.50;99.90
39677;DHT22;27789;50.840;4.386;2023-08-06T13:23:58;16.40;99.90
39677;DHT22;27789;50.840;4.386;2023-08-06T13:26:23;16.50;99.90
39677;DHT22;27789;50.840;4.386;2023-08-06T13:28:49;16.50;99.90
39677;DHT22;27789;50.840;4.386;2023-08-06T13:31:14;16.40;99.90
39677;DHT22;27789;50.840;4.386;2023-08-06T13:33:40;16.20;99.90
39677;DHT22;27789;50.840;4.386;2023-08-06T13:36:06;16.10;99.90
39677;DHT22;27789;50.840;4.386;2023-08-06T13:38:31;16.00;99.90
39677;DHT22;27789;50.840;4.386;2023-08-06T13:40:57;16.00;99.90
39677;DHT22;27789;50.840;4.386;2023-08-06T13:43:24;15.90;99.90
39677;DHT22;27789;50.840;4.386;2023-08-06T13:45:49;15.90;99.90
39677;DHT22;27789;50.840;4.386;2023-08-06T13:48:15;15.80;99.90
39677;DHT22;27789;50.840;4.386;2023-08-06T13:50:40;15.70;99.90
39677;DHT22;27789;50.840;4.386;2023-08-06T13:53:05;15.70;99.90
39677;DHT22;27789;50.840;4.386;2023-08-06T13:55:31;15.60;99.90
39677;DHT22;27789;50.840;4.386;2023-08-06T13:57:57;15.60;99.90
39677;DHT22;27789;50.840;4.386;2023-08-06T14:00:22;15.60;99.90
39677;DHT22;27789;50.840;4.386;2023-08-06T14:02:48;15.60;99.90
39677;DHT22;27789;50.840;4.386;2023-08-06T14:05:13;15.60;99.90
39677;DHT22;27789;50.840;4.386;2023-08-06T14:07:39;15.50;99.90
39677;DHT22;27789;50.840;4.386;2023-08-06T14:10:05;15.50;99.90
39677;DHT22;27789;50.840;4.386;2023-08-06T14:12:30;15.50;99.90
39677;DHT22;27789;50.840;4.386;2023-08-06T14:14:56;15.50;99.90
39677;DHT22;27789;50.840;4.386;2023-08-06T14:17:21;15.60;99.90
39677;DHT22;27789;50.840;4.386;2023-08-06T14:19:47;15.70;99.90
39677;DHT22;27789;50.840;4.386;2023-08-06T14:22:12;15.70;99.90
39677;DHT22;27789;50.840;4.386;2023-08-06T14:24:38;15.70;99.90
39677;DHT22;27789;50.840;4.386;2023-08-06T14:27:03;15.80;99.90
39677;DHT22;27789;50.840;4.386;2023-08-06T14:29:31;15.80;99.90
39677;DHT22;27789;50.840;4.386;2023-08-06T14:31:56;15.80;99.90
39677;DHT22;27789;50.840;4.386;2023-08-06T14:34:22;15.80;99.90
39677;DHT22;27789;50.840;4.386;2023-08-06T14:36:47;15.70;99.90
39677;DHT22;27789;50.840;4.386;2023-08-06T14:39:13;15.60;99.90
39677;DHT22;27789;50.840;4.386;2023-08-06T14:41:39;15.60;99.90
39677;DHT22;27789;50.840;4.386;2023-08-06T14:44:04;15.60;99.90
39677;DHT22;27789;50.840;4.386;2023-08-06T14:46:30;15.70;99.90
39677;DHT22;27789;50.840;4.386;2023-08-06T14:48:55;15.70;99.90
39677;DHT22;27789;50.840;4.386;2023-08-06T14:51:21;15.70;99.90
39677;DHT22;27789;50.840;4.386;2023-08-06T14:53:46;15.70;99.90
39677;DHT22;27789;50.840;4.386;2023-08-06T14:56:12;15.70;99.90
39677;DHT22;27789;50.840;4.386;2023-08-06T14:58:37;15.70;99.90
39677;DHT22;27789;50.840;4.386;2023-08-06T15:01:03;15.80;99.90
39677;DHT22;27789;50.840;4.386;2023-08-06T15:03:28;15.90;99.90
39677;DHT22;27789;50.840;4.386;2023-08-06T15:05:56;15.90;99.90
39677;DHT22;27789;50.840;4.386;2023-08-06T15:08:21;15.90;99.90
39677;DHT22;27789;50.840;4.386;2023-08-06T15:10:50;15.90;99.90
39677;DHT22;27789;50.840;4.386;2023-08-06T15:13:16;16.00;99.90
39677;DHT22;27789;50.840;4.386;2023-08-06T15:15:42;16.10;99.90
39677;DHT22;27789;50.840;4.386;2023-08-06T15:18:09;16.20;99.90
39677;DHT22;27789;50.840;4.386;2023-08-06T15:20:36;16.20;99.90
39677;DHT22;27789;50.840;4.386;2023-08-06T15:23:01;16.30;99.90
39677;DHT22;27789;50.840;4.386;2023-08-06T15:25:27;16.30;99.90
39677;DHT22;27789;50.840;4.386;2023-08-06T15:27:53;16.30;99.90
39677;DHT22;27789;50.840;4.386;2023-08-06T15:30:18;16.30;99.90
39677;DHT22;27789;50.840;4.386;2023-08-06T15:32:46;16.20;99.90